createdAt,value
2023-02-10T00:01:38.465Z,37.90
2023-02-10T00:04:06.721Z,34.50
2023-02-10T00:06:35.152Z,33.40
2023-02-10T00:09:03.753Z,33.70
2023-02-10T00:11:50.641Z,34.80
2023-02-10T00:14:19.586Z,35.30
2023-02-10T00:16:50.985Z,33.60
2023-02-10T00:19:24.844Z,34.40
2023-02-10T00:21:53.096Z,32.60
2023-02-10T00:24:22.119Z,32.90
2023-02-10T00:26:50.587Z,29.20
2023-02-10T00:29:19.133Z,26.30
2023-02-10T00:31:47.930Z,26.00
2023-02-10T00:34:18.003Z,24.70
2023-02-10T00:36:49.394Z,25.50
2023-02-10T00:39:19.265Z,24.40
2023-02-10T00:41:47.991Z,27.40
2023-02-10T00:44:16.579Z,28.50
2023-02-10T00:46:45.021Z,29.30
2023-02-10T00:49:14.858Z,31.00
2023-02-10T00:51:43.055Z,32.60
2023-02-10T00:54:14.136Z,32.50
2023-02-10T00:56:42.539Z,31.10
2023-02-10T00:59:14.120Z,30.10
2023-02-10T01:01:42.680Z,30.30
2023-02-10T01:04:10.969Z,29.50
2023-02-10T01:06:40.992Z,30.70
2023-02-10T01:09:10.228Z,31.10
2023-02-10T01:11:38.831Z,30.40
2023-02-10T01:14:07.899Z,28.50
2023-02-10T01:16:36.797Z,25.00
2023-02-10T01:19:05.211Z,21.70
2023-02-10T01:21:39.561Z,22.20
2023-02-10T01:24:08.106Z,22.80
2023-02-10T01:26:40.695Z,29.80
2023-02-10T01:29:08.914Z,26.20
2023-02-10T01:31:37.145Z,27.10
2023-02-10T01:34:06.349Z,28.80
2023-02-10T01:36:34.564Z,30.00
2023-02-10T01:39:02.915Z,32.00
2023-02-10T01:41:33.227Z,28.20
2023-02-10T01:44:07.043Z,29.00
2023-02-10T01:46:35.797Z,27.80
2023-02-10T01:49:09.895Z,28.40
2023-02-10T01:51:43.926Z,22.60
2023-02-10T01:54:15.110Z,22.40
2023-02-10T01:56:43.420Z,22.50
2023-02-10T01:59:11.818Z,21.80
2023-02-10T02:01:40.206Z,20.20
2023-02-10T02:04:08.567Z,21.40
2023-02-10T02:06:36.703Z,20.80
2023-02-10T02:09:06.287Z,19.00
2023-02-10T02:11:54.327Z,19.60
2023-02-10T02:14:40.605Z,18.80
2023-02-10T02:17:29.086Z,16.80
2023-02-10T02:20:43.054Z,17.40
2023-02-10T02:23:17.715Z,20.50
2023-02-10T02:26:07.968Z,21.30
2023-02-10T02:28:58.076Z,22.30
2023-02-10T02:31:44.444Z,21.10
2023-02-10T02:34:12.571Z,19.20
2023-02-10T02:37:13.700Z,19.00
2023-02-10T02:39:44.711Z,18.10
2023-02-10T02:42:16.137Z,18.80
2023-02-10T02:44:45.901Z,17.20
2023-02-10T02:47:47.548Z,19.00
2023-02-10T02:50:24.078Z,18.90
2023-02-10T02:53:07.502Z,17.60
2023-02-10T02:56:02.930Z,18.50
2023-02-10T02:58:32.005Z,19.80
2023-02-10T03:01:06.403Z,24.70
2023-02-10T03:03:35.492Z,20.90
2023-02-10T03:06:04.195Z,20.40
2023-02-10T03:08:33.565Z,18.80
2023-02-10T03:11:02.066Z,19.20
2023-02-10T03:13:30.524Z,18.60
2023-02-10T03:16:00.670Z,20.50
2023-02-10T03:18:29.829Z,18.90
2023-02-10T03:20:58.021Z,16.60
2023-02-10T03:23:26.169Z,17.70
2023-02-10T03:25:54.369Z,18.40
2023-02-10T03:28:24.821Z,20.30
2023-02-10T03:30:53.831Z,19.50
2023-02-10T03:33:22.237Z,17.70
2023-02-10T03:35:53.254Z,16.90
2023-02-10T03:38:23.558Z,17.20
2023-02-10T03:40:52.177Z,18.40
2023-02-10T03:43:20.656Z,18.80
2023-02-10T03:45:49.662Z,18.40
2023-02-10T03:48:18.135Z,17.80
2023-02-10T03:50:46.289Z,18.10
2023-02-10T03:53:14.434Z,17.30
2023-02-10T03:55:42.651Z,17.20
2023-02-10T03:58:10.797Z,18.60
2023-02-10T04:00:38.960Z,19.00
2023-02-10T04:03:07.030Z,21.10
2023-02-10T04:05:35.124Z,19.20
2023-02-10T04:08:03.460Z,22.50
2023-02-10T04:10:31.604Z,20.10
2023-02-10T04:13:01.905Z,19.50
2023-02-10T04:15:30.199Z,23.60
2023-02-10T04:17:58.550Z,20.90
2023-02-10T04:20:26.973Z,23.10
2023-02-10T04:22:55.368Z,25.40
2023-02-10T04:25:23.505Z,29.10
2023-02-10T04:27:52.102Z,26.10
2023-02-10T04:30:20.681Z,24.20
2023-02-10T04:32:49.128Z,24.40
2023-02-10T04:35:17.369Z,23.30
2023-02-10T04:37:45.505Z,21.90
2023-02-10T04:40:13.634Z,22.60
2023-02-10T04:42:41.850Z,22.20
2023-02-10T04:45:11.897Z,24.40
2023-02-10T04:47:40.148Z,25.10
2023-02-10T04:50:08.356Z,22.60
2023-02-10T04:52:36.545Z,24.70
2023-02-10T04:55:05.039Z,26.30
2023-02-10T04:59:16.087Z,26.80
2023-02-10T05:01:44.511Z,24.50
2023-02-10T05:04:12.598Z,26.30
2023-02-10T05:06:41.428Z,42.40
2023-02-10T05:09:10.228Z,43.10
2023-02-10T05:11:39.106Z,40.10
2023-02-10T05:14:07.661Z,41.30
2023-02-10T05:16:37.879Z,40.40
2023-02-10T05:19:06.040Z,34.00
2023-02-10T05:21:35.823Z,28.50
2023-02-10T05:24:04.169Z,24.70
2023-02-10T05:26:33.638Z,24.80
2023-02-10T05:29:02.210Z,25.40
2023-02-10T05:31:31.111Z,26.90
2023-02-10T05:33:59.538Z,27.40
2023-02-10T05:36:28.574Z,25.10
2023-02-10T05:39:15.692Z,26.40
2023-02-10T05:41:43.822Z,30.60
2023-02-10T05:44:11.950Z,32.30
2023-02-10T05:46:43.732Z,30.10
2023-02-10T05:49:12.861Z,33.30
2023-02-10T05:51:41.270Z,42.30
2023-02-10T05:54:09.655Z,34.30
2023-02-10T05:56:38.425Z,30.90
2023-02-10T05:59:07.170Z,28.30
2023-02-10T06:01:35.321Z,32.50
2023-02-10T06:04:03.747Z,28.50
2023-02-10T06:06:32.211Z,36.50
2023-02-10T06:09:00.395Z,39.30
2023-02-10T06:11:33.750Z,38.90
2023-02-10T06:14:02.096Z,36.20
2023-02-10T06:16:30.654Z,33.80
2023-02-10T06:18:59.034Z,39.00
2023-02-10T06:21:27.275Z,45.50
2023-02-10T06:23:56.385Z,46.40
2023-02-10T06:26:24.516Z,51.80
2023-02-10T06:28:52.681Z,62.70
2023-02-10T06:31:22.376Z,49.20
2023-02-10T06:33:50.828Z,48.00
2023-02-10T06:36:19.646Z,39.50
2023-02-10T06:38:49.319Z,31.40
2023-02-10T06:41:17.615Z,24.80
2023-02-10T06:43:45.739Z,17.90
2023-02-10T06:46:16.842Z,14.00
2023-02-10T06:48:45.341Z,12.60
2023-02-10T06:51:14.008Z,12.10
2023-02-10T06:53:43.645Z,12.90
2023-02-10T06:56:12.506Z,10.90
2023-02-10T06:58:40.616Z,11.30
2023-02-10T07:01:10.043Z,10.80
2023-02-10T07:03:38.594Z,10.40
2023-02-10T07:06:06.831Z,10.90
2023-02-10T07:08:35.198Z,11.10
2023-02-10T07:11:03.604Z,11.30
2023-02-10T07:13:32.012Z,11.40
2023-02-10T07:16:00.403Z,11.90
2023-02-10T07:18:31.110Z,14.80
2023-02-10T07:20:59.366Z,14.00
2023-02-10T07:23:36.161Z,10.90
2023-02-10T07:26:06.448Z,11.10
2023-02-10T07:28:35.877Z,11.30
2023-02-10T07:31:04.228Z,10.90
2023-02-10T07:33:32.532Z,11.80
2023-02-10T07:36:03.420Z,11.70
2023-02-10T07:38:32.435Z,12.90
2023-02-10T07:41:00.749Z,11.80
2023-02-10T07:43:29.217Z,9.90
2023-02-10T07:46:05.504Z,11.80
2023-02-10T07:48:33.810Z,12.00
2023-02-10T07:51:01.985Z,10.90
2023-02-10T07:53:30.349Z,10.40
2023-02-10T07:56:00.941Z,11.80
2023-02-10T07:58:29.158Z,12.20
2023-02-10T08:00:57.565Z,11.70
2023-02-10T08:03:25.761Z,12.20
2023-02-10T08:05:54.179Z,12.00
2023-02-10T08:08:22.344Z,9.70
2023-02-10T08:10:53.178Z,11.40
2023-02-10T08:13:22.346Z,11.60
2023-02-10T08:15:51.504Z,12.00
2023-02-10T08:18:19.857Z,12.00
2023-02-10T08:20:48.976Z,12.40
2023-02-10T08:23:18.299Z,11.90
2023-02-10T08:25:51.435Z,11.20
2023-02-10T08:28:20.360Z,11.60
2023-02-10T08:30:49.029Z,11.30
2023-02-10T08:33:18.156Z,11.60
2023-02-10T08:35:46.649Z,13.00
2023-02-10T08:38:15.078Z,12.60
2023-02-10T08:40:43.193Z,12.10
2023-02-10T08:43:11.495Z,11.40
2023-02-10T08:45:41.437Z,13.80
2023-02-10T08:48:09.917Z,10.10
2023-02-10T08:50:38.152Z,10.90
2023-02-10T08:53:06.295Z,11.00
2023-02-10T08:55:34.852Z,10.40
2023-02-10T08:58:03.658Z,10.60
2023-02-10T09:00:31.812Z,10.80
2023-02-10T09:03:00.169Z,13.20
2023-02-10T09:05:28.415Z,12.90
2023-02-10T09:07:57.447Z,11.20
2023-02-10T09:10:26.033Z,11.10
2023-02-10T09:12:55.586Z,10.90
2023-02-10T09:15:23.843Z,11.60
2023-02-10T09:17:52.111Z,12.50
2023-02-10T09:20:20.539Z,12.00
2023-02-10T09:22:49.106Z,11.10
2023-02-10T09:25:17.343Z,10.30
2023-02-10T09:27:45.779Z,10.90
2023-02-10T09:30:14.070Z,10.70
2023-02-10T09:32:42.533Z,9.80
2023-02-10T09:35:10.894Z,10.60
2023-02-10T09:37:39.081Z,10.40
2023-02-10T09:40:08.022Z,10.60
2023-02-10T09:42:48.289Z,9.70
2023-02-10T09:45:23.680Z,10.20
2023-02-10T09:47:54.635Z,12.20
2023-02-10T09:50:28.894Z,11.40
2023-02-10T09:53:29.541Z,11.70
2023-02-10T09:56:03.713Z,11.20
2023-02-10T09:58:45.554Z,11.70
2023-02-10T10:01:34.074Z,10.50
2023-02-10T10:04:06.725Z,11.60
2023-02-10T10:06:40.015Z,11.20
2023-02-10T10:09:10.079Z,12.20
2023-02-10T10:11:45.826Z,10.10
2023-02-10T10:14:39.458Z,11.20
2023-02-10T10:17:52.531Z,12.40
2023-02-10T10:21:07.286Z,11.40
2023-02-10T10:23:45.324Z,11.60
2023-02-10T10:26:21.531Z,12.40
2023-02-10T10:29:25.961Z,10.40
2023-02-10T10:32:25.920Z,10.50
2023-02-10T10:34:55.093Z,11.30
2023-02-10T10:37:24.817Z,11.80
2023-02-10T10:39:54.930Z,11.20
2023-02-10T10:42:42.390Z,11.50
2023-02-10T10:45:16.763Z,10.30
2023-02-10T10:47:53.780Z,11.40
2023-02-10T10:50:22.812Z,11.10
2023-02-10T10:52:53.525Z,11.40
2023-02-10T10:55:39.874Z,11.60
2023-02-10T10:58:38.981Z,11.50
2023-02-10T11:01:07.560Z,10.80
2023-02-10T11:03:36.310Z,11.00
2023-02-10T11:06:08.763Z,10.70
2023-02-10T11:08:44.070Z,11.30
2023-02-10T11:11:31.594Z,10.70
2023-02-10T11:14:12.349Z,11.40
2023-02-10T11:16:49.767Z,10.20
2023-02-10T11:19:37.661Z,11.30
2023-02-10T11:22:16.775Z,10.10
2023-02-10T11:24:56.559Z,9.50
2023-02-10T11:27:25.304Z,12.00
2023-02-10T11:29:58.012Z,11.40
2023-02-10T11:32:28.291Z,11.20
2023-02-10T11:35:04.060Z,10.00
2023-02-10T11:37:36.857Z,9.70
2023-02-10T11:40:17.297Z,10.50
2023-02-10T11:42:54.061Z,9.80
2023-02-10T11:45:31.954Z,11.40
2023-02-10T11:48:14.934Z,10.50
2023-02-10T11:50:46.305Z,9.70
2023-02-10T11:53:23.051Z,8.50
2023-02-10T11:56:03.369Z,8.40
2023-02-10T11:59:01.277Z,9.70
2023-02-10T12:01:41.976Z,9.10
2023-02-10T12:04:38.885Z,9.40
2023-02-10T12:09:50.054Z,9.60
2023-02-10T12:12:40.048Z,9.30
2023-02-10T12:15:35.701Z,9.90
2023-02-10T12:18:25.662Z,8.40
2023-02-10T12:21:03.141Z,9.70
2023-02-10T12:24:00.356Z,9.20
2023-02-10T12:26:41.046Z,9.00
2023-02-10T12:29:19.548Z,8.90
2023-02-10T12:31:54.099Z,8.90
2023-02-10T12:34:47.144Z,9.20
2023-02-10T12:37:21.711Z,9.50
2023-02-10T12:40:32.698Z,10.10
2023-02-10T12:43:12.460Z,9.80
2023-02-10T12:45:45.680Z,9.50
2023-02-10T12:48:52.476Z,10.10
2023-02-10T12:51:48.686Z,9.60
2023-02-10T12:54:43.092Z,9.60
2023-02-10T12:57:20.489Z,10.60
2023-02-10T13:00:04.411Z,10.40
2023-02-10T13:02:41.498Z,10.50
2023-02-10T13:05:16.873Z,12.20
2023-02-10T13:07:53.350Z,10.10
2023-02-10T13:10:29.432Z,10.10
2023-02-10T13:13:00.792Z,11.70
2023-02-10T13:15:30.740Z,9.70
2023-02-10T13:17:59.741Z,10.70
2023-02-10T13:20:55.679Z,10.30
2023-02-10T13:23:33.122Z,10.20
2023-02-10T13:26:04.549Z,10.50
2023-02-10T13:28:51.178Z,10.30
2023-02-10T13:31:24.044Z,11.40
2023-02-10T13:34:04.755Z,10.00
2023-02-10T13:36:35.077Z,10.40
2023-02-10T13:39:24.578Z,10.10
2023-02-10T13:42:15.930Z,10.00
2023-02-10T13:44:44.517Z,10.70
2023-02-10T13:47:14.507Z,11.50
2023-02-10T13:49:54.586Z,10.10
2023-02-10T13:52:27.567Z,11.30
2023-02-10T13:54:59.380Z,10.50
2023-02-10T13:57:29.023Z,10.90
2023-02-10T14:00:17.314Z,10.90
2023-02-10T14:02:47.010Z,10.80
2023-02-10T14:05:23.585Z,11.30
2023-02-10T14:07:52.578Z,12.00
2023-02-10T14:10:22.899Z,10.60
2023-02-10T14:12:57.769Z,11.20
2023-02-10T14:15:37.710Z,11.60
2023-02-10T14:18:21.560Z,12.10
2023-02-10T14:21:17.732Z,11.10
2023-02-10T14:23:56.944Z,11.30
2023-02-10T14:26:35.998Z,12.10
2023-02-10T14:29:04.350Z,12.30
2023-02-10T14:31:37.263Z,12.20
2023-02-10T14:34:33.339Z,11.60
2023-02-10T14:37:02.308Z,11.60
2023-02-10T14:39:31.191Z,12.80
2023-02-10T14:42:00.452Z,14.10
2023-02-10T14:44:35.841Z,13.90
2023-02-10T14:49:36.803Z,12.90
2023-02-10T14:52:05.977Z,13.10
2023-02-10T14:54:41.037Z,13.40
2023-02-10T14:57:13.749Z,13.50
2023-02-10T14:59:42.162Z,13.10
2023-02-10T15:02:21.783Z,18.70
2023-02-10T15:04:53.153Z,13.60
2023-02-10T15:07:34.389Z,26.80
2023-02-10T15:10:14.888Z,12.70
2023-02-10T15:12:51.088Z,14.80
2023-02-10T15:15:28.648Z,12.90
2023-02-10T15:18:01.454Z,13.30
2023-02-10T15:20:31.855Z,12.80
2023-02-10T15:23:00.092Z,12.80
2023-02-10T15:25:33.415Z,13.70
2023-02-10T15:28:10.552Z,12.20
2023-02-10T15:31:04.543Z,14.60
2023-02-10T15:33:40.098Z,11.70
2023-02-10T15:36:11.227Z,13.70
2023-02-10T15:38:49.627Z,13.40
2023-02-10T15:41:46.674Z,12.30
2023-02-10T15:44:20.589Z,14.10
2023-02-10T15:46:51.195Z,14.90
2023-02-10T15:49:20.619Z,13.70
2023-02-10T15:51:53.150Z,12.10
2023-02-10T15:54:26.571Z,13.90
2023-02-10T15:57:02.186Z,15.20
2023-02-10T15:59:31.109Z,13.80
2023-02-10T16:02:01.177Z,14.30
2023-02-10T16:04:30.779Z,13.40
2023-02-10T16:07:00.343Z,12.70
2023-02-10T16:09:34.243Z,12.90
2023-02-10T16:12:02.554Z,12.70
2023-02-10T16:14:31.390Z,13.40
2023-02-10T16:16:59.727Z,13.70
2023-02-10T16:19:30.992Z,14.70
2023-02-10T16:21:59.698Z,14.40
2023-02-10T16:24:29.728Z,14.10
2023-02-10T16:26:58.645Z,13.40
2023-02-10T16:29:28.578Z,13.50
2023-02-10T16:31:57.945Z,13.30
2023-02-10T16:34:28.082Z,14.20
2023-02-10T16:36:58.486Z,13.80
2023-02-10T16:39:31.390Z,14.80
2023-02-10T16:42:00.210Z,13.00
2023-02-10T16:44:28.904Z,13.10
2023-02-10T16:46:58.408Z,14.00
2023-02-10T16:49:26.869Z,14.00
2023-02-10T16:51:55.734Z,15.60
2023-02-10T16:54:25.365Z,13.60
2023-02-10T16:56:53.741Z,14.00
2023-02-10T16:59:22.159Z,14.50
2023-02-10T17:01:50.473Z,14.00
2023-02-10T17:04:19.061Z,14.50
2023-02-10T17:06:49.458Z,13.20
2023-02-10T17:09:23.475Z,14.00
2023-02-10T17:11:52.463Z,14.90
2023-02-10T17:15:17.753Z,15.30
2023-02-10T17:17:46.080Z,15.90
2023-02-10T17:20:21.913Z,16.50
2023-02-10T17:22:50.274Z,14.80
2023-02-10T17:25:18.961Z,14.20
2023-02-10T17:27:47.458Z,15.00
2023-02-10T17:30:17.346Z,15.70
2023-02-10T17:32:48.304Z,14.10
2023-02-10T17:35:19.076Z,15.70
2023-02-10T17:37:47.842Z,15.30
2023-02-10T17:40:18.289Z,14.90
2023-02-10T17:42:47.790Z,16.20
2023-02-10T17:45:17.823Z,16.00
2023-02-10T17:47:47.336Z,15.20
2023-02-10T17:50:16.574Z,14.50
2023-02-10T17:52:44.727Z,17.00
2023-02-10T17:55:21.730Z,14.10
2023-02-10T17:57:50.765Z,15.90
2023-02-10T18:00:19.559Z,16.50
2023-02-10T18:02:48.599Z,15.00
2023-02-10T18:05:16.848Z,16.60
2023-02-10T18:07:45.085Z,16.90
2023-02-10T18:10:13.905Z,23.10
2023-02-10T18:12:42.565Z,24.50
2023-02-10T18:15:16.686Z,25.30
2023-02-10T18:17:47.091Z,23.80
2023-02-10T18:20:15.412Z,27.70
2023-02-10T18:22:44.341Z,21.50
2023-02-10T18:25:12.944Z,25.40
2023-02-10T18:27:41.245Z,22.40
2023-02-10T18:30:10.838Z,23.60
2023-02-10T18:32:42.271Z,21.70
2023-02-10T18:35:11.602Z,21.60
2023-02-10T18:37:40.226Z,18.60
2023-02-10T18:40:10.461Z,21.70
2023-02-10T18:42:38.620Z,21.80
2023-02-10T18:45:07.156Z,21.60
2023-02-10T18:47:35.497Z,21.80
2023-02-10T18:50:03.774Z,19.90
2023-02-10T18:52:32.099Z,21.00
2023-02-10T18:55:00.290Z,18.30
2023-02-10T18:57:29.400Z,18.80
2023-02-10T18:59:57.548Z,18.40
2023-02-10T19:02:27.317Z,16.10
2023-02-10T19:04:55.698Z,20.00
2023-02-10T19:07:23.847Z,20.50
2023-02-10T19:09:53.430Z,18.80
2023-02-10T19:12:21.733Z,18.40
2023-02-10T19:14:49.898Z,16.90
2023-02-10T19:17:18.136Z,17.40
2023-02-10T19:19:46.401Z,19.60
2023-02-10T19:22:14.832Z,17.60
2023-02-10T19:24:42.979Z,16.60
2023-02-10T19:27:11.756Z,15.00
2023-02-10T19:29:40.535Z,17.60
2023-02-10T19:32:09.570Z,16.70
2023-02-10T19:34:37.825Z,17.20
2023-02-10T19:37:07.224Z,18.40
2023-02-10T19:39:35.908Z,18.10
2023-02-10T19:42:05.005Z,16.70
2023-02-10T19:44:34.810Z,17.10
2023-02-10T19:47:04.054Z,18.30
2023-02-10T19:49:33.329Z,18.70
2023-02-10T19:52:01.604Z,19.90
2023-02-10T19:54:30.821Z,19.10
2023-02-10T19:56:59.300Z,17.10
2023-02-10T19:59:27.524Z,17.50
2023-02-10T20:01:55.648Z,18.00
2023-02-10T20:04:24.148Z,16.90
2023-02-10T20:06:53.001Z,18.70
2023-02-10T20:09:21.499Z,18.70
2023-02-10T20:11:53.469Z,17.20
2023-02-10T20:14:21.824Z,17.60
2023-02-10T20:16:50.223Z,17.50
2023-02-10T20:19:19.593Z,17.20
2023-02-10T20:21:48.383Z,16.20
2023-02-10T20:24:16.814Z,17.60
2023-02-10T20:26:45.205Z,17.00
2023-02-10T20:29:13.480Z,16.30
2023-02-10T20:31:41.936Z,17.10
2023-02-10T20:34:10.643Z,16.60
2023-02-10T20:36:38.921Z,17.30
2023-02-10T20:39:07.282Z,17.00
2023-02-10T20:41:35.422Z,17.30
2023-02-10T20:44:04.423Z,16.70
2023-02-10T20:46:33.966Z,16.30
2023-02-10T20:49:05.265Z,16.90
2023-02-10T20:51:34.181Z,16.50
2023-02-10T20:54:02.482Z,17.00
2023-02-10T20:56:32.093Z,17.60
2023-02-10T20:59:04.374Z,16.00
2023-02-10T21:01:33.189Z,16.90
2023-02-10T21:04:01.319Z,18.80
2023-02-10T21:06:29.715Z,20.40
2023-02-10T21:08:58.071Z,18.50
2023-02-10T21:11:28.003Z,21.30
2023-02-10T21:13:56.137Z,21.00
2023-02-10T21:16:24.540Z,29.50
2023-02-10T21:18:52.791Z,28.70
2023-02-10T21:21:21.331Z,29.40
2023-02-10T21:23:49.774Z,26.80
2023-02-10T21:26:18.242Z,24.10
2023-02-10T21:28:46.977Z,23.40
2023-02-10T21:31:20.432Z,21.40
2023-02-10T21:33:48.842Z,19.60
2023-02-10T21:36:22.616Z,21.90
2023-02-10T21:38:51.245Z,22.00
2023-02-10T21:41:41.657Z,20.90
2023-02-10T21:44:25.078Z,19.10
2023-02-10T21:46:55.217Z,19.50
2023-02-10T21:49:23.960Z,18.90
2023-02-10T21:51:52.893Z,18.40
2023-02-10T21:54:22.040Z,18.20
2023-02-10T21:56:50.233Z,19.70
2023-02-10T21:59:18.782Z,18.70
2023-02-10T22:01:47.169Z,17.40
2023-02-10T22:04:15.752Z,18.00
2023-02-10T22:06:44.477Z,16.70
2023-02-10T22:09:14.804Z,18.30
2023-02-10T22:11:43.588Z,17.60
2023-02-10T22:14:14.094Z,18.80
2023-02-10T22:16:42.924Z,17.50
2023-02-10T22:19:11.953Z,19.70
2023-02-10T22:21:41.500Z,18.90
2023-02-10T22:24:11.343Z,18.60
2023-02-10T22:26:39.621Z,18.30
2023-02-10T22:29:08.370Z,18.60
2023-02-10T22:31:36.674Z,19.00
2023-02-10T22:34:06.070Z,19.60
2023-02-10T22:36:35.110Z,17.40
2023-02-10T22:39:03.821Z,19.40
2023-02-10T22:41:34.060Z,17.90
2023-02-10T22:44:05.253Z,18.30
2023-02-10T22:46:33.786Z,16.80
2023-02-10T22:49:05.335Z,16.90
2023-02-10T22:51:33.777Z,19.30
2023-02-10T22:54:03.821Z,18.40
2023-02-10T22:56:33.718Z,20.90
2023-02-10T22:59:02.748Z,20.40
2023-02-10T23:01:40.170Z,20.00
2023-02-10T23:04:10.386Z,17.00
2023-02-10T23:06:40.818Z,19.30
2023-02-10T23:09:09.891Z,19.20
2023-02-10T23:11:47.401Z,19.50
2023-02-10T23:14:16.239Z,18.20
2023-02-10T23:16:49.032Z,18.00
2023-02-10T23:19:17.533Z,19.50
2023-02-10T23:21:45.748Z,19.40
2023-02-10T23:24:13.865Z,20.30
2023-02-10T23:26:42.008Z,19.60
2023-02-10T23:29:11.945Z,18.10
2023-02-10T23:31:40.574Z,19.00
2023-02-10T23:34:08.823Z,18.80
2023-02-10T23:36:37.043Z,20.40
2023-02-10T23:39:06.137Z,20.30
2023-02-10T23:41:36.247Z,19.70
2023-02-10T23:44:06.510Z,17.70
2023-02-10T23:46:35.101Z,20.50
2023-02-10T23:49:03.530Z,18.40
2023-02-10T23:51:31.822Z,18.00
2023-02-10T23:54:00.194Z,18.70
2023-02-10T23:56:29.152Z,17.80
2023-02-10T23:58:59.534Z,20.20
